createdAt,value
2019-02-14T00:02:02.038Z,97.50
2019-02-14T00:04:37.050Z,97.50
2019-02-14T00:07:10.930Z,97.90
2019-02-14T00:09:44.338Z,97.90
2019-02-14T00:12:22.087Z,98.00
2019-02-14T00:14:55.985Z,98.20
2019-02-14T00:17:29.880Z,98.40
2019-02-14T00:20:04.853Z,98.60
2019-02-14T00:22:39.383Z,98.80
2019-02-14T00:25:13.849Z,98.80
2019-02-14T00:27:49.016Z,98.90
2019-02-14T00:30:23.918Z,99.10
2019-02-14T00:32:57.243Z,99.60
2019-02-14T00:35:31.020Z,99.70
2019-02-14T00:38:04.859Z,99.90
2019-02-14T00:40:38.537Z,99.90
2019-02-14T00:43:12.740Z,99.90
2019-02-14T00:45:46.353Z,99.90
2019-02-14T00:48:21.685Z,99.90
2019-02-14T00:50:56.584Z,99.90
2019-02-14T00:53:30.696Z,99.60
2019-02-14T00:56:04.036Z,99.40
2019-02-14T00:58:40.499Z,99.60
2019-02-14T01:01:15.297Z,99.70
2019-02-14T01:03:49.335Z,99.90
2019-02-14T01:06:23.516Z,99.80
2019-02-14T01:08:59.181Z,99.80
2019-02-14T01:11:36.186Z,99.90
2019-02-14T01:14:12.289Z,99.90
2019-02-14T01:16:47.737Z,99.90
2019-02-14T01:19:24.042Z,99.90
2019-02-14T01:21:59.394Z,99.90
2019-02-14T01:24:35.206Z,99.80
2019-02-14T01:27:11.928Z,99.50
2019-02-14T01:29:47.442Z,99.50
2019-02-14T01:32:23.689Z,99.60
2019-02-14T01:34:58.527Z,99.90
2019-02-14T01:37:30.899Z,99.90
2019-02-14T01:40:07.416Z,99.90
2019-02-14T01:42:42.552Z,99.90
2019-02-14T01:45:17.390Z,99.90
2019-02-14T01:47:51.478Z,99.90
2019-02-14T01:50:26.460Z,99.90
2019-02-14T01:53:00.806Z,99.90
2019-02-14T01:55:34.944Z,99.90
2019-02-14T01:58:09.483Z,99.90
2019-02-14T02:00:43.752Z,99.90
2019-02-14T02:03:17.778Z,99.90
2019-02-14T02:05:52.117Z,99.80
2019-02-14T02:08:26.964Z,99.80
2019-02-14T02:11:01.542Z,99.70
2019-02-14T02:13:36.191Z,99.40
2019-02-14T02:16:10.771Z,98.90
2019-02-14T02:18:47.625Z,98.50
2019-02-14T02:21:22.031Z,98.40
2019-02-14T02:23:56.823Z,98.40
2019-02-14T02:26:32.970Z,98.40
2019-02-14T02:29:06.873Z,98.40
2019-02-14T02:31:42.067Z,98.20
2019-02-14T02:34:16.797Z,98.10
2019-02-14T02:36:50.042Z,97.90
2019-02-14T02:39:26.017Z,98.20
2019-02-14T02:42:00.574Z,98.60
2019-02-14T02:44:35.382Z,98.90
2019-02-14T02:47:11.090Z,99.50
2019-02-14T02:49:44.445Z,99.30
2019-02-14T02:52:18.720Z,99.00
2019-02-14T02:54:57.928Z,99.00
2019-02-14T02:57:36.729Z,99.10
2019-02-14T03:00:18.699Z,99.30
2019-02-14T03:02:57.124Z,99.60
2019-02-14T03:05:34.845Z,99.60
2019-02-14T03:08:13.364Z,99.80
2019-02-14T03:10:50.935Z,99.90
2019-02-14T03:13:31.151Z,99.90
2019-02-14T03:16:07.619Z,99.90
2019-02-14T03:18:42.697Z,99.90
2019-02-14T03:21:19.466Z,99.90
2019-02-14T03:23:55.333Z,99.90
2019-02-14T03:26:31.070Z,99.90
2019-02-14T03:29:06.292Z,99.90
2019-02-14T03:31:42.433Z,99.90
2019-02-14T03:34:18.386Z,99.90
2019-02-14T03:36:54.511Z,99.90
2019-02-14T03:39:29.483Z,99.90
2019-02-14T03:42:06.128Z,99.90
2019-02-14T03:44:42.049Z,99.90
2019-02-14T03:47:17.456Z,99.90
2019-02-14T03:49:53.561Z,99.90
2019-02-14T03:52:28.946Z,99.90
2019-02-14T03:55:04.512Z,99.90
2019-02-14T03:57:39.981Z,99.90
2019-02-14T04:00:18.410Z,99.90
2019-02-14T04:02:54.842Z,99.90
2019-02-14T04:05:30.972Z,99.90
2019-02-14T04:08:05.040Z,99.90
2019-02-14T04:10:42.112Z,99.90
2019-02-14T04:13:18.357Z,99.90
2019-02-14T04:15:53.658Z,99.90
2019-02-14T04:18:29.098Z,99.90
2019-02-14T04:21:04.303Z,99.90
2019-02-14T04:23:41.120Z,99.90
2019-02-14T04:26:18.665Z,99.90
2019-02-14T04:28:53.815Z,99.90
2019-02-14T04:31:30.415Z,99.90
2019-02-14T04:34:06.752Z,99.90
2019-02-14T04:36:41.355Z,99.90
2019-02-14T04:39:17.131Z,99.90
2019-02-14T04:41:51.257Z,99.90
2019-02-14T04:44:25.051Z,99.90
2019-02-14T04:46:59.688Z,99.90
2019-02-14T04:49:37.110Z,99.90
2019-02-14T04:52:12.717Z,99.90
2019-02-14T04:54:48.504Z,99.90
2019-02-14T04:57:24.125Z,99.90
2019-02-14T04:59:59.882Z,99.90
2019-02-14T05:02:34.532Z,99.90
2019-02-14T05:05:09.185Z,99.90
2019-02-14T05:07:45.576Z,99.90
2019-02-14T05:10:21.755Z,99.90
2019-02-14T05:12:57.897Z,99.90
2019-02-14T05:15:33.930Z,99.90
2019-02-14T05:18:08.265Z,99.90
2019-02-14T05:20:43.182Z,99.90
2019-02-14T05:23:16.942Z,99.90
2019-02-14T05:25:52.337Z,99.90
2019-02-14T05:28:27.243Z,99.90
2019-02-14T05:31:01.628Z,99.90
2019-02-14T05:33:36.626Z,99.90
2019-02-14T05:36:11.040Z,99.90
2019-02-14T05:38:46.790Z,99.90
2019-02-14T05:41:22.105Z,99.90
2019-02-14T05:43:57.784Z,99.90
2019-02-14T05:46:32.952Z,99.90
2019-02-14T05:49:07.882Z,99.90
2019-02-14T05:51:44.014Z,99.90
2019-02-14T05:54:18.132Z,99.90
2019-02-14T05:56:52.963Z,99.90
2019-02-14T05:59:29.834Z,99.90
2019-02-14T06:02:04.309Z,99.90
2019-02-14T06:04:38.687Z,99.90
2019-02-14T06:07:13.214Z,99.90
2019-02-14T06:09:49.316Z,99.90
2019-02-14T06:12:22.916Z,99.90
2019-02-14T06:14:56.374Z,99.90
2019-02-14T06:17:28.744Z,99.90
2019-02-14T06:20:00.384Z,99.90
2019-02-14T06:22:33.056Z,99.90
2019-02-14T06:25:06.624Z,99.90
2019-02-14T06:27:39.598Z,99.90
2019-02-14T06:30:13.532Z,99.90
2019-02-14T06:32:46.028Z,99.90
2019-02-14T06:35:18.601Z,99.90
2019-02-14T06:37:51.867Z,99.90
2019-02-14T06:40:23.689Z,99.90
2019-02-14T06:42:55.792Z,99.90
2019-02-14T06:45:29.538Z,99.90
2019-02-14T06:48:02.049Z,99.90
2019-02-14T06:50:35.078Z,99.90
2019-02-14T06:53:07.429Z,99.90
2019-02-14T06:55:40.014Z,99.90
2019-02-14T06:58:12.854Z,99.90
2019-02-14T07:00:45.805Z,99.90
2019-02-14T07:03:19.027Z,99.90
2019-02-14T07:05:51.793Z,99.90
2019-02-14T07:08:24.277Z,99.90
2019-02-14T07:10:57.657Z,99.90
2019-02-14T07:13:31.419Z,99.90
2019-02-14T07:16:02.296Z,99.90
2019-02-14T07:18:34.157Z,99.90
2019-02-14T07:21:04.902Z,99.90
2019-02-14T07:23:35.575Z,99.90
2019-02-14T07:26:06.739Z,99.90
2019-02-14T07:28:38.350Z,99.90
2019-02-14T07:31:09.617Z,99.90
2019-02-14T07:33:40.692Z,99.90
2019-02-14T07:36:11.350Z,99.90
2019-02-14T07:38:42.082Z,99.90
2019-02-14T07:41:12.588Z,99.90
2019-02-14T07:43:43.374Z,99.90
2019-02-14T07:46:22.355Z,99.90
2019-02-14T07:48:46.516Z,99.90
2019-02-14T07:51:17.041Z,99.90
2019-02-14T07:53:47.685Z,99.90
2019-02-14T07:56:19.489Z,99.90
2019-02-14T07:58:51.308Z,99.90
2019-02-14T08:01:23.459Z,99.90
2019-02-14T08:03:55.347Z,99.90
2019-02-14T08:06:25.905Z,99.90
2019-02-14T08:08:59.962Z,99.90
2019-02-14T08:11:30.710Z,99.90
2019-02-14T08:14:01.598Z,99.90
2019-02-14T08:16:33.343Z,99.90
2019-02-14T08:19:05.101Z,99.90
2019-02-14T08:21:35.737Z,99.90
2019-02-14T08:24:07.512Z,99.90
2019-02-14T08:26:39.686Z,99.90
2019-02-14T08:29:10.216Z,99.90
2019-02-14T08:31:40.890Z,99.90
2019-02-14T08:34:14.516Z,99.00
2019-02-14T08:36:45.364Z,97.00
2019-02-14T08:39:17.069Z,95.00
2019-02-14T08:41:50.650Z,93.00
2019-02-14T08:44:29.821Z,91.50
2019-02-14T08:47:00.750Z,90.90
2019-02-14T08:49:31.429Z,89.80
2019-02-14T08:52:02.167Z,89.40
2019-02-14T08:54:32.709Z,89.50
2019-02-14T08:57:03.396Z,89.60
2019-02-14T08:59:35.321Z,88.40
2019-02-14T09:02:06.433Z,87.70
2019-02-14T09:04:37.095Z,86.20
2019-02-14T09:07:07.825Z,84.90
2019-02-14T09:09:39.591Z,84.20
2019-02-14T09:12:10.287Z,84.00
2019-02-14T09:14:42.321Z,83.20
2019-02-14T09:17:12.912Z,82.90
2019-02-14T09:19:43.582Z,82.20
2019-02-14T09:22:14.281Z,81.90
2019-02-14T09:24:45.052Z,81.60
2019-02-14T09:27:16.746Z,81.10
2019-02-14T09:29:48.333Z,81.00
2019-02-14T09:32:22.596Z,81.10
2019-02-14T09:34:53.224Z,80.10
2019-02-14T09:37:24.911Z,79.30
2019-02-14T09:39:55.651Z,78.50
2019-02-14T09:42:26.299Z,78.30
2019-02-14T09:44:58.544Z,77.40
2019-02-14T09:47:30.532Z,77.20
2019-02-14T09:50:01.824Z,76.80
2019-02-14T09:52:32.875Z,77.00
2019-02-14T09:55:06.702Z,76.40
2019-02-14T09:57:37.343Z,75.70
2019-02-14T10:00:10.610Z,75.00
2019-02-14T10:02:41.566Z,74.80
2019-02-14T10:05:15.370Z,74.80
2019-02-14T10:07:46.544Z,74.30
2019-02-14T10:10:18.127Z,74.80
2019-02-14T10:12:50.750Z,75.50
2019-02-14T10:15:22.152Z,75.40
2019-02-14T10:17:52.815Z,74.90
2019-02-14T10:20:23.501Z,75.30
2019-02-14T10:22:54.193Z,75.20
2019-02-14T10:25:24.819Z,74.30
2019-02-14T10:27:55.425Z,73.80
2019-02-14T10:30:26.019Z,74.00
2019-02-14T10:32:56.653Z,73.50
2019-02-14T10:35:27.937Z,73.10
2019-02-14T10:37:59.551Z,73.50
2019-02-14T10:40:30.627Z,73.00
2019-02-14T10:43:01.324Z,72.80
2019-02-14T10:45:33.599Z,72.70
2019-02-14T10:48:06.552Z,72.70
2019-02-14T10:50:37.297Z,71.50
2019-02-14T10:53:08.667Z,70.90
2019-02-14T10:55:42.323Z,70.40
2019-02-14T10:58:13.057Z,70.50
2019-02-14T11:00:45.237Z,69.60
2019-02-14T11:03:16.172Z,69.70
2019-02-14T11:05:47.092Z,69.70
2019-02-14T11:08:17.755Z,67.30
2019-02-14T11:10:48.489Z,65.30
2019-02-14T11:13:19.266Z,63.20
2019-02-14T11:15:49.938Z,62.10
2019-02-14T11:18:21.113Z,61.70
2019-02-14T11:20:52.714Z,60.00
2019-02-14T11:23:23.362Z,57.60
2019-02-14T11:25:53.988Z,57.00
2019-02-14T11:28:24.595Z,56.40
2019-02-14T11:30:57.989Z,56.10
2019-02-14T11:33:30.894Z,54.30
2019-02-14T11:36:01.439Z,55.30
2019-02-14T11:38:40.206Z,56.40
2019-02-14T11:41:04.483Z,57.10
2019-02-14T11:43:35.964Z,56.00
2019-02-14T11:46:09.119Z,55.00
2019-02-14T11:48:39.626Z,56.10
2019-02-14T11:51:10.461Z,57.50
2019-02-14T11:53:44.040Z,56.80
2019-02-14T11:56:14.616Z,56.00
2019-02-14T11:58:45.357Z,55.20
2019-02-14T12:01:17.567Z,54.60
2019-02-14T12:03:49.230Z,55.00
2019-02-14T12:06:20.968Z,55.90
2019-02-14T12:08:59.865Z,55.80
2019-02-14T12:11:24.943Z,55.80
2019-02-14T12:13:55.580Z,55.30
2019-02-14T12:16:26.192Z,55.70
2019-02-14T12:18:56.676Z,54.30
2019-02-14T12:21:27.275Z,54.50
2019-02-14T12:23:58.115Z,55.20
2019-02-14T12:26:29.724Z,54.40
2019-02-14T12:29:00.376Z,55.50
2019-02-14T12:31:31.029Z,56.40
2019-02-14T12:34:02.948Z,57.60
2019-02-14T12:36:33.553Z,58.00
2019-02-14T12:39:09.874Z,57.70
2019-02-14T12:41:38.468Z,56.20
2019-02-14T12:44:10.225Z,55.80
2019-02-14T12:46:40.831Z,56.90
2019-02-14T12:49:13.931Z,56.40
2019-02-14T12:51:44.677Z,55.30
2019-02-14T12:54:16.612Z,54.10
2019-02-14T12:56:47.334Z,52.50
2019-02-14T12:59:18.026Z,53.20
2019-02-14T13:01:49.372Z,51.40
2019-02-14T13:04:22.576Z,50.90
2019-02-14T13:06:53.566Z,51.10
2019-02-14T13:09:25.045Z,49.70
2019-02-14T13:11:55.888Z,48.70
2019-02-14T13:14:29.439Z,48.30
2019-02-14T13:17:00.493Z,47.70
2019-02-14T13:19:31.287Z,47.60
2019-02-14T13:22:02.198Z,47.10
2019-02-14T13:24:33.335Z,46.60
2019-02-14T13:27:03.914Z,45.30
2019-02-14T13:29:34.527Z,45.10
2019-02-14T13:32:05.212Z,45.70
2019-02-14T13:34:35.871Z,45.10
2019-02-14T13:37:06.470Z,45.70
2019-02-14T13:39:37.039Z,44.70
2019-02-14T13:42:07.750Z,44.30
2019-02-14T13:44:38.471Z,44.60
2019-02-14T13:47:08.954Z,44.50
2019-02-14T13:49:40.368Z,44.50
2019-02-14T13:52:11.740Z,45.00
2019-02-14T13:54:48.411Z,44.70
2019-02-14T13:57:18.915Z,44.10
2019-02-14T13:59:49.850Z,44.20
2019-02-14T14:02:20.517Z,44.20
2019-02-14T14:04:51.142Z,44.10
2019-02-14T14:07:21.752Z,43.60
2019-02-14T14:09:53.394Z,43.00
2019-02-14T14:12:23.928Z,42.80
2019-02-14T14:14:54.625Z,43.30
2019-02-14T14:17:25.128Z,42.50
2019-02-14T14:19:55.671Z,43.00
2019-02-14T14:22:26.333Z,44.20
2019-02-14T14:24:57.870Z,42.90
2019-02-14T14:27:28.577Z,43.60
2019-02-14T14:29:59.123Z,43.00
2019-02-14T14:32:29.708Z,43.40
2019-02-14T14:35:00.335Z,43.60
2019-02-14T14:37:31.079Z,42.60
2019-02-14T14:40:01.823Z,41.90
2019-02-14T14:42:51.412Z,42.10
2019-02-14T14:45:32.179Z,42.60
2019-02-14T14:48:02.806Z,42.40
2019-02-14T14:50:35.942Z,42.70
2019-02-14T14:53:07.628Z,42.80
2019-02-14T14:55:38.945Z,43.40
2019-02-14T14:58:09.459Z,42.90
2019-02-14T15:00:39.954Z,43.60
2019-02-14T15:03:10.531Z,43.20
2019-02-14T15:05:42.828Z,43.50
2019-02-14T15:08:15.540Z,43.90
2019-02-14T15:10:46.296Z,44.20
2019-02-14T15:13:17.019Z,43.90
2019-02-14T15:15:47.642Z,43.80
2019-02-14T15:18:18.438Z,43.80
2019-02-14T15:20:49.074Z,44.10
2019-02-14T15:23:21.110Z,44.30
2019-02-14T15:25:52.046Z,44.90
2019-02-14T15:28:24.102Z,45.20
2019-02-14T15:30:55.907Z,44.10
2019-02-14T15:33:26.411Z,44.60
2019-02-14T15:35:57.103Z,45.40
2019-02-14T15:38:27.755Z,46.60
2019-02-14T15:40:58.271Z,47.60
2019-02-14T15:43:28.788Z,48.70
2019-02-14T15:45:59.321Z,48.60
2019-02-14T15:48:31.591Z,50.00
2019-02-14T15:51:02.217Z,50.40
2019-02-14T15:53:32.730Z,49.30
2019-02-14T15:56:05.352Z,50.40
2019-02-14T15:58:35.844Z,50.50
2019-02-14T16:01:06.756Z,51.30
2019-02-14T16:03:38.604Z,51.80
2019-02-14T16:06:09.878Z,51.70
2019-02-14T16:08:40.548Z,53.50
2019-02-14T16:11:11.885Z,53.70
2019-02-14T16:13:44.017Z,53.90
2019-02-14T16:16:15.103Z,54.50
2019-02-14T16:18:49.152Z,54.90
2019-02-14T16:21:34.382Z,55.40
2019-02-14T16:24:05.101Z,55.80
2019-02-14T16:26:38.883Z,56.70
2019-02-14T16:29:11.451Z,57.20
2019-02-14T16:31:44.410Z,58.00
2019-02-14T16:34:20.849Z,59.50
2019-02-14T16:36:53.073Z,59.90
2019-02-14T16:39:25.846Z,61.20
2019-02-14T16:41:59.074Z,61.90
2019-02-14T16:44:31.356Z,63.50
2019-02-14T16:47:03.682Z,64.60
2019-02-14T16:49:36.947Z,65.10
2019-02-14T16:52:09.589Z,66.00
2019-02-14T16:54:43.671Z,67.00
2019-02-14T16:57:17.172Z,67.00
2019-02-14T16:59:51.000Z,67.30
2019-02-14T17:02:27.704Z,69.20
2019-02-14T17:05:02.286Z,69.70
2019-02-14T17:07:35.241Z,70.10
2019-02-14T17:10:10.363Z,69.80
2019-02-14T17:12:48.803Z,70.50
2019-02-14T17:15:24.834Z,71.30
2019-02-14T17:17:59.016Z,72.80
2019-02-14T17:20:38.389Z,72.40
2019-02-14T17:23:12.910Z,73.10
2019-02-14T17:25:48.077Z,72.90
2019-02-14T17:28:18.887Z,74.20
2019-02-14T17:30:50.859Z,74.40
2019-02-14T17:33:23.753Z,74.80
2019-02-14T17:35:55.321Z,74.90
2019-02-14T17:38:27.523Z,74.80
2019-02-14T17:40:58.191Z,74.80
2019-02-14T17:43:29.374Z,75.60
2019-02-14T17:46:02.164Z,75.90
2019-02-14T17:48:36.310Z,76.10
2019-02-14T17:51:09.411Z,77.00
2019-02-14T17:53:41.834Z,77.00
2019-02-14T17:56:18.840Z,77.10
2019-02-14T17:58:49.538Z,77.50
2019-02-14T18:01:21.775Z,78.40
2019-02-14T18:03:53.087Z,78.80
2019-02-14T18:06:26.041Z,79.00
2019-02-14T18:08:56.885Z,79.00
2019-02-14T18:11:30.208Z,79.30
2019-02-14T18:14:00.975Z,79.80
2019-02-14T18:16:32.667Z,80.30
2019-02-14T18:19:06.405Z,80.70
2019-02-14T18:21:37.705Z,80.90
2019-02-14T18:24:08.365Z,81.60
2019-02-14T18:26:39.015Z,82.10
2019-02-14T18:29:10.806Z,82.60
2019-02-14T18:31:41.715Z,82.60
2019-02-14T18:34:12.333Z,82.80
2019-02-14T18:36:43.155Z,82.60
2019-02-14T18:39:13.915Z,82.60
2019-02-14T18:41:44.688Z,82.80
2019-02-14T18:44:15.772Z,83.30
2019-02-14T18:46:47.352Z,83.50
2019-02-14T18:49:18.080Z,84.00
2019-02-14T18:51:50.612Z,84.50
2019-02-14T18:54:21.339Z,84.80
2019-02-14T18:56:52.160Z,85.30
2019-02-14T18:59:22.799Z,85.50
2019-02-14T19:01:53.501Z,85.60
2019-02-14T19:04:27.278Z,86.00
2019-02-14T19:07:01.858Z,86.10
2019-02-14T19:09:32.591Z,86.20
2019-02-14T19:12:06.451Z,86.60
2019-02-14T19:14:37.234Z,87.40
2019-02-14T19:17:10.705Z,87.40
2019-02-14T19:19:42.435Z,87.20
2019-02-14T19:22:14.438Z,87.60
2019-02-14T19:24:47.413Z,87.90
2019-02-14T19:27:20.512Z,88.10
2019-02-14T19:29:51.244Z,88.30
2019-02-14T19:32:23.202Z,88.40
2019-02-14T19:34:55.881Z,88.80
2019-02-14T19:37:29.271Z,89.10
2019-02-14T19:39:59.962Z,89.10
2019-02-14T19:42:35.082Z,89.30
2019-02-14T19:45:06.833Z,89.20
2019-02-14T19:47:38.863Z,88.80
2019-02-14T19:50:09.731Z,86.80
2019-02-14T19:52:40.363Z,86.10
2019-02-14T19:55:11.293Z,87.00
2019-02-14T19:57:42.127Z,87.20
2019-02-14T20:00:14.399Z,87.20
2019-02-14T20:02:46.253Z,87.40
2019-02-14T20:05:17.686Z,87.80
2019-02-14T20:07:48.585Z,87.70
2019-02-14T20:10:19.362Z,87.90
2019-02-14T20:12:50.138Z,88.00
2019-02-14T20:15:21.052Z,88.30
2019-02-14T20:17:51.676Z,88.70
2019-02-14T20:20:22.364Z,88.80
2019-02-14T20:22:53.268Z,88.90
2019-02-14T20:25:24.402Z,88.90
2019-02-14T20:27:55.396Z,89.10
2019-02-14T20:30:28.790Z,89.30
2019-02-14T20:33:04.913Z,89.80
2019-02-14T20:35:35.284Z,90.00
2019-02-14T20:38:06.085Z,90.20
2019-02-14T20:40:36.889Z,90.30
2019-02-14T20:43:09.106Z,90.30
2019-02-14T20:45:39.908Z,90.40
2019-02-14T20:48:10.865Z,90.40
2019-02-14T20:50:41.903Z,90.60
2019-02-14T20:53:14.203Z,90.60
2019-02-14T20:55:44.991Z,90.60
2019-02-14T20:58:16.089Z,90.60
2019-02-14T21:00:47.728Z,90.70
2019-02-14T21:03:18.399Z,90.90
2019-02-14T21:05:49.219Z,91.10
2019-02-14T21:08:20.960Z,91.10
2019-02-14T21:10:54.983Z,91.10
2019-02-14T21:13:27.562Z,91.10
2019-02-14T21:15:58.708Z,91.00
2019-02-14T21:18:29.411Z,91.00
2019-02-14T21:21:00.635Z,91.10
2019-02-14T21:23:39.123Z,91.20
2019-02-14T21:26:14.963Z,91.20
2019-02-14T21:28:46.896Z,91.50
2019-02-14T21:31:20.507Z,91.60
2019-02-14T21:33:51.225Z,91.60
2019-02-14T21:36:23.226Z,92.00
2019-02-14T21:38:54.814Z,92.30
2019-02-14T21:41:25.559Z,91.90
2019-02-14T21:44:00.423Z,91.40
2019-02-14T21:46:31.210Z,90.80
2019-02-14T21:49:03.667Z,90.00
2019-02-14T21:51:45.127Z,89.30
2019-02-14T21:54:20.254Z,87.80
2019-02-14T21:56:52.809Z,86.10
2019-02-14T21:59:24.955Z,85.10
2019-02-14T22:01:55.623Z,83.80
2019-02-14T22:04:26.480Z,83.00
2019-02-14T22:06:58.949Z,82.30
2019-02-14T22:09:30.140Z,81.60
2019-02-14T22:12:03.898Z,80.60
2019-02-14T22:14:34.701Z,79.60
2019-02-14T22:17:07.594Z,78.90
2019-02-14T22:19:40.504Z,78.70
2019-02-14T22:22:13.552Z,78.50
2019-02-14T22:24:46.894Z,78.60
2019-02-14T22:27:21.806Z,78.60
2019-02-14T22:29:52.622Z,78.90
2019-02-14T22:32:25.141Z,79.30
2019-02-14T22:34:57.251Z,79.30
2019-02-14T22:37:28.648Z,78.90
2019-02-14T22:39:59.329Z,79.30
2019-02-14T22:42:31.155Z,78.60
2019-02-14T22:45:01.820Z,78.40
2019-02-14T22:47:32.474Z,78.10
2019-02-14T22:50:03.005Z,77.80
2019-02-14T22:52:36.338Z,77.80
2019-02-14T22:55:07.515Z,78.10
2019-02-14T22:57:38.089Z,78.70
2019-02-14T23:00:16.756Z,79.20
2019-02-14T23:02:49.213Z,79.40
2019-02-14T23:05:19.792Z,79.90
2019-02-14T23:07:50.503Z,80.30
2019-02-14T23:10:21.964Z,80.40
2019-02-14T23:12:56.248Z,80.50
2019-02-14T23:15:28.331Z,79.70
2019-02-14T23:17:59.581Z,79.50
2019-02-14T23:20:30.270Z,79.00
2019-02-14T23:23:01.016Z,78.60
2019-02-14T23:25:31.782Z,77.90
2019-02-14T23:28:02.466Z,78.30
2019-02-14T23:30:34.282Z,77.90
2019-02-14T23:33:04.925Z,77.20
2019-02-14T23:35:35.859Z,76.80
2019-02-14T23:38:11.448Z,76.80
2019-02-14T23:40:44.506Z,76.40
2019-02-14T23:43:15.167Z,76.00
2019-02-14T23:45:47.004Z,75.20
2019-02-14T23:48:18.938Z,74.80
2019-02-14T23:50:50.526Z,74.30
2019-02-14T23:53:21.116Z,73.40
2019-02-14T23:55:51.731Z,73.70
2019-02-14T23:58:22.468Z,73.40
